»·PEaware :: UAL1677 KSAN-KSFO

UAL1677 :: KSAN-KSFO

FLIGHT INFORMATION

Flight Status: Arrived
Operator:
United Airlines
More flights by this operator :: More flights under this callsign
Pilot: James N. (18449)
Aircraft: BOEING 737-800
(B738)
More flights by this aircraft type
Origin: KSAN San Diego Intl-Lindbergh
United States
Destination: KSFO San Francisco Intl
United States
More flights between these airports :: More routes between these airports
Route: PADRZ2 IKAYE RIZIN SPLNT STOKD SERFR SERFR3
File this flight plan on PilotEdge
Remarks:
Altitude:
(Current/Filed)
38,000ft
Speed:
(Current/Filed)
461kts
Departed: 10-Jun-18 06:49 PM
Arrived: 10-Jun-18 07:57 PM
Distance/Time
Traveled:
388nm/1:08
Distance/Time
To Go:
Arrived

Flight Plot

Page will automatically refresh every two minutes.

Flight plan parsing failed; only flown route is shown


Map Options




Map Legend


Flown Route
Filed Route
Departure Airport
Arrival Airport
Navaid (VOR, NDB)
Fix

Horizontal Profiles

Position Reports

Time Latitude Longitude Heading Altitude Ground
Speed
10-Jun-18 18:17 32.734503 -117.204526 129 25ft 0kts
10-Jun-18 18:18 32.734503 -117.204526 129 25ft 0kts
10-Jun-18 18:19 32.734503 -117.204526 129 25ft 0kts
10-Jun-18 18:20 32.734503 -117.204526 129 25ft 0kts
10-Jun-18 18:21 32.734503 -117.204526 129 25ft 0kts
10-Jun-18 18:22 32.734503 -117.204526 129 25ft 0kts
10-Jun-18 18:23 32.734503 -117.204526 129 25ft 0kts
10-Jun-18 18:24 32.734503 -117.204526 129 25ft 0kts
10-Jun-18 18:25 32.734503 -117.204526 129 25ft 0kts
10-Jun-18 18:26 32.734503 -117.204526 129 25ft 0kts
10-Jun-18 18:27 32.734503 -117.204526 129 25ft 0kts
10-Jun-18 18:28 32.734503 -117.204526 129 25ft 0kts
10-Jun-18 18:29 32.734503 -117.204526 129 25ft 0kts
10-Jun-18 18:30 32.734503 -117.204526 129 25ft 0kts
10-Jun-18 18:31 32.734503 -117.204526 129 25ft 0kts
10-Jun-18 18:32 32.734503 -117.204526 129 25ft 0kts
10-Jun-18 18:33 32.734503 -117.204526 129 25ft 0kts
10-Jun-18 18:34 32.734503 -117.204526 129 25ft 0kts
10-Jun-18 18:35 32.734733 -117.204895 106 25ft 2kts
10-Jun-18 18:36 32.734506 -117.205513 22 25ft 2kts
10-Jun-18 18:37 32.734329 -117.205555 1 25ft 0kts
10-Jun-18 18:38 32.734329 -117.205555 1 25ft 0kts
10-Jun-18 18:39 32.734329 -117.205555 1 25ft 0kts
10-Jun-18 18:40 32.734329 -117.205555 1 25ft 0kts
10-Jun-18 18:41 32.734730 -117.205437 29 25ft 3kts
10-Jun-18 18:42 32.735763 -117.204011 62 25ft 8kts
10-Jun-18 18:43 32.735193 -117.200678 106 25ft 13kts
10-Jun-18 18:44 32.733977 -117.195689 105 25ft 18kts
10-Jun-18 18:45 32.732393 -117.189165 105 25ft 22kts
10-Jun-18 18:46 32.730499 -117.181312 106 25ft 26kts
10-Jun-18 18:47 32.729502 -117.177098 104 25ft 2kts
10-Jun-18 18:48 32.730201 -117.176105 286 25ft 7kts
10-Jun-18 18:49 32.736091 -117.199739 286 456ft 164kts
10-Jun-18 18:50 32.760174 -117.256321 306 2374ft 246kts
10-Jun-18 18:51 32.802875 -117.323629 306 5633ft 267kts
10-Jun-18 18:52 32.843505 -117.386557 307 8540ft 276kts
10-Jun-18 18:53 32.891449 -117.460849 307 10960ft 309kts
10-Jun-18 18:54 32.945192 -117.544332 308 13965ft 327kts
10-Jun-18 18:55 33.001546 -117.631844 308 17158ft 343kts
10-Jun-18 18:56 33.060172 -117.723348 309 20098ft 358kts
10-Jun-18 18:57 33.130342 -117.798172 319 22603ft 371kts
10-Jun-18 18:58 33.209093 -117.880032 315 25018ft 385kts
10-Jun-18 18:59 33.285877 -117.971491 314 27204ft 398kts
10-Jun-18 19:00 33.364826 -118.066561 314 29183ft 411kts
10-Jun-18 19:01 33.447187 -118.166280 314 30402ft 439kts
10-Jun-18 19:02 33.532003 -118.269143 314 32748ft 434kts
10-Jun-18 19:03 33.613410 -118.367898 314 34815ft 429kts
10-Jun-18 19:04 33.695566 -118.467510 314 36598ft 425kts
10-Jun-18 19:05 33.778876 -118.568451 315 37794ft 431kts
10-Jun-18 19:06 33.863050 -118.670345 314 37896ft 441kts
10-Jun-18 19:07 33.948713 -118.773984 314 37899ft 441kts
10-Jun-18 19:08 34.034846 -118.878094 314 37898ft 441kts
10-Jun-18 19:09 34.120606 -118.981677 314 37896ft 442kts
10-Jun-18 19:10 34.191587 -119.099768 301 37886ft 442kts
10-Jun-18 19:11 34.255147 -119.225320 301 37880ft 442kts
10-Jun-18 19:12 34.318671 -119.349812 301 37880ft 442kts
10-Jun-18 19:13 34.382821 -119.475120 301 37880ft 442kts
10-Jun-18 19:14 34.459135 -119.590287 314 37881ft 443kts
10-Jun-18 19:15 34.529444 -119.677302 313 37882ft 442kts
10-Jun-18 19:16 34.614519 -119.783012 313 37882ft 442kts
10-Jun-18 19:17 34.690890 -119.878058 313 37900ft 442kts
10-Jun-18 19:18 34.776003 -119.983988 313 37922ft 442kts
10-Jun-18 19:19 34.875962 -120.108323 313 37945ft 442kts
10-Jun-18 19:20 34.947259 -120.196913 313 37966ft 436kts
10-Jun-18 19:21 35.030569 -120.300359 312 37980ft 429kts
10-Jun-18 19:22 35.115700 -120.403286 315 37983ft 429kts
10-Jun-18 19:23 35.203156 -120.501395 315 37988ft 429kts
10-Jun-18 19:24 35.290724 -120.599816 315 37988ft 429kts
10-Jun-18 19:25 35.355178 -120.672358 315 37993ft 429kts
10-Jun-18 19:26 35.402024 -120.725143 315 37994ft 429kts
10-Jun-18 19:27 35.548260 -120.878044 320 38001ft 431kts
10-Jun-18 19:28 35.642671 -120.965744 320 38000ft 431kts
10-Jun-18 19:29 35.738448 -121.054976 320 37999ft 432kts
10-Jun-18 19:30 35.833410 -121.143717 320 37999ft 434kts
10-Jun-18 19:31 35.926418 -121.230892 320 38000ft 433kts
10-Jun-18 19:32 36.022011 -121.320772 320 36127ft 439kts
10-Jun-18 19:33 36.116698 -121.403353 325 33452ft 432kts
10-Jun-18 19:34 36.214835 -121.479810 326 30827ft 434kts
10-Jun-18 19:35 36.313847 -121.557150 326 28250ft 416kts
10-Jun-18 19:36 36.409016 -121.631741 326 25827ft 399kts
10-Jun-18 19:37 36.500411 -121.703636 326 23542ft 382kts
10-Jun-18 19:38 36.586933 -121.771969 326 21406ft 366kts
10-Jun-18 19:39 36.670145 -121.837867 326 19394ft 350kts
10-Jun-18 19:40 36.753650 -121.898700 342 17354ft 349kts
10-Jun-18 19:41 36.846455 -121.925024 346 15429ft 335kts
10-Jun-18 19:42 36.936759 -121.949868 346 13475ft 330kts
10-Jun-18 19:43 37.012665 -121.977091 342 11764ft 321kts
10-Jun-18 19:44 37.095049 -122.009148 342 10493ft 292kts
10-Jun-18 19:45 37.167005 -122.037178 342 9901ft 266kts
10-Jun-18 19:46 37.237935 -122.064871 341 8631ft 266kts
10-Jun-18 19:47 37.307266 -122.082005 15 7629ft 258kts
10-Jun-18 19:48 37.373107 -122.043585 23 7023ft 259kts
10-Jun-18 19:49 37.436010 -122.024623 331 6828ft 220kts
10-Jun-18 19:50 37.485358 -122.067654 315 5895ft 215kts
10-Jun-18 19:51 37.514294 -122.127980 297 5099ft 182kts
10-Jun-18 19:52 37.538614 -122.184913 297 3583ft 188kts
10-Jun-18 19:53 37.561299 -122.238555 296 2542ft 165kts
10-Jun-18 19:54 37.581077 -122.285490 293 1492ft 140kts
10-Jun-18 19:55 37.597340 -122.324144 292 643ft 120kts
10-Jun-18 19:56 37.613148 -122.361566 292 36ft 113kts
10-Jun-18 19:57 37.618973 -122.378362 266 21ft 10kts
10-Jun-18 19:58 37.619728 -122.382338 305 20ft 19kts
10-Jun-18 19:59 37.622499 -122.389002 293 21ft 16kts
10-Jun-18 20:00 37.621318 -122.391668 208 21ft 12kts
10-Jun-18 20:01 37.619898 -122.389579 29 21ft 6kts
10-Jun-18 20:02 37.620175 -122.389394 25 21ft 0kts
10-Jun-18 20:03 37.620175 -122.389394 25 21ft 0kts

Navigation Log

Ident Type
Flight plan parsing failed, navigation log unavailable